sim
Sign-in with your pilot id or email,
or register
Callsign
Passwort

Schedule Details

Flight Number: OEO4978
Departure: Berlin Tegel Airport (EDDT) at 12:25
Arrival: Thessaloniki International Airport (LGTS) at 14:55

Weather Information
Getting current METAR information for EDDT 211150Z 26015KT 9999 FEW020 SCT042 11/05 Q1022 NOSIG
Getting current METAR information for LGTS 211150Z 34014KT CAVOK 16/00 Q1023 NOSIG

Schedule Frequency

Route Map